sensor_id;sensor_type;location;lat;lon;timestamp;temperature;humidity
21169;DHT22;10742;51.816;8.662;2024-03-22T00:02:01;13.70;93.10
21169;DHT22;10742;51.816;8.662;2024-03-22T00:05:22;13.80;93.10
21169;DHT22;10742;51.816;8.662;2024-03-22T00:08:42;13.70;93.20
21169;DHT22;10742;51.816;8.662;2024-03-22T00:12:03;13.70;93.20
21169;DHT22;10742;51.816;8.662;2024-03-22T00:15:24;13.80;93.30
21169;DHT22;10742;51.816;8.662;2024-03-22T00:18:44;13.80;93.30
21169;DHT22;10742;51.816;8.662;2024-03-22T00:22:05;13.80;93.40
21169;DHT22;10742;51.816;8.662;2024-03-22T00:25:25;13.80;93.40
21169;DHT22;10742;51.816;8.662;2024-03-22T00:28:45;13.80;93.40
21169;DHT22;10742;51.816;8.662;2024-03-22T00:32:06;13.80;93.50
21169;DHT22;10742;51.816;8.662;2024-03-22T00:35:27;13.80;93.50
21169;DHT22;10742;51.816;8.662;2024-03-22T00:38:48;13.80;93.60
21169;DHT22;10742;51.816;8.662;2024-03-22T00:42:08;13.90;93.60
21169;DHT22;10742;51.816;8.662;2024-03-22T00:45:29;13.90;93.60
21169;DHT22;10742;51.816;8.662;2024-03-22T00:48:50;13.90;93.70
21169;DHT22;10742;51.816;8.662;2024-03-22T00:52:10;13.90;93.70
21169;DHT22;10742;51.816;8.662;2024-03-22T00:55:31;13.80;93.70
21169;DHT22;10742;51.816;8.662;2024-03-22T00:58:51;13.90;93.80
21169;DHT22;10742;51.816;8.662;2024-03-22T01:02:12;13.90;93.90
21169;DHT22;10742;51.816;8.662;2024-03-22T01:05:32;13.90;93.90
21169;DHT22;10742;51.816;8.662;2024-03-22T01:08:52;13.90;93.90
21169;DHT22;10742;51.816;8.662;2024-03-22T01:12:13;13.90;94.00
21169;DHT22;10742;51.816;8.662;2024-03-22T01:15:33;13.90;94.00
21169;DHT22;10742;51.816;8.662;2024-03-22T01:18:54;14.00;94.10
21169;DHT22;10742;51.816;8.662;2024-03-22T01:22:15;14.00;94.10
21169;DHT22;10742;51.816;8.662;2024-03-22T01:25:36;14.00;94.10
21169;DHT22;10742;51.816;8.662;2024-03-22T01:28:56;14.00;94.10
21169;DHT22;10742;51.816;8.662;2024-03-22T01:32:17;14.00;94.20
21169;DHT22;10742;51.816;8.662;2024-03-22T01:35:37;14.00;94.20
21169;DHT22;10742;51.816;8.662;2024-03-22T01:38:58;14.00;94.20
21169;DHT22;10742;51.816;8.662;2024-03-22T01:42:18;14.00;94.30
21169;DHT22;10742;51.816;8.662;2024-03-22T01:45:41;14.00;94.30
21169;DHT22;10742;51.816;8.662;2024-03-22T01:49:02;14.00;94.40
21169;DHT22;10742;51.816;8.662;2024-03-22T01:52:23;14.00;94.40
21169;DHT22;10742;51.816;8.662;2024-03-22T01:55:43;14.00;94.40
21169;DHT22;10742;51.816;8.662;2024-03-22T01:59:07;14.00;94.50
21169;DHT22;10742;51.816;8.662;2024-03-22T02:02:27;14.10;94.70
21169;DHT22;10742;51.816;8.662;2024-03-22T02:05:48;14.10;94.50
21169;DHT22;10742;51.816;8.662;2024-03-22T02:09:08;14.10;94.60
21169;DHT22;10742;51.816;8.662;2024-03-22T02:12:29;14.10;94.60
21169;DHT22;10742;51.816;8.662;2024-03-22T02:15:49;14.10;94.60
21169;DHT22;10742;51.816;8.662;2024-03-22T02:19:10;14.10;94.60
21169;DHT22;10742;51.816;8.662;2024-03-22T02:22:30;14.10;94.80
21169;DHT22;10742;51.816;8.662;2024-03-22T02:25:51;14.20;94.70
21169;DHT22;10742;51.816;8.662;2024-03-22T02:29:34;14.20;94.80
21169;DHT22;10742;51.816;8.662;2024-03-22T02:32:54;14.20;94.90
21169;DHT22;10742;51.816;8.662;2024-03-22T02:36:15;14.20;94.90
21169;DHT22;10742;51.816;8.662;2024-03-22T02:39:35;14.20;94.90
21169;DHT22;10742;51.816;8.662;2024-03-22T02:42:56;14.20;95.00
21169;DHT22;10742;51.816;8.662;2024-03-22T02:46:16;14.20;95.00
21169;DHT22;10742;51.816;8.662;2024-03-22T02:49:38;14.20;95.10
21169;DHT22;10742;51.816;8.662;2024-03-22T02:52:58;14.30;95.10
21169;DHT22;10742;51.816;8.662;2024-03-22T02:56:19;14.20;95.10
21169;DHT22;10742;51.816;8.662;2024-03-22T02:59:39;14.30;95.10
21169;DHT22;10742;51.816;8.662;2024-03-22T03:03:00;14.30;95.10
21169;DHT22;10742;51.816;8.662;2024-03-22T03:06:20;14.30;95.40
21169;DHT22;10742;51.816;8.662;2024-03-22T03:09:41;14.30;95.10
21169;DHT22;10742;51.816;8.662;2024-03-22T03:13:01;14.40;95.10
21169;DHT22;10742;51.816;8.662;2024-03-22T03:16:22;14.30;95.00
21169;DHT22;10742;51.816;8.662;2024-03-22T03:19:43;14.40;95.00
21169;DHT22;10742;51.816;8.662;2024-03-22T03:23:04;14.40;95.00
21169;DHT22;10742;51.816;8.662;2024-03-22T03:26:24;14.40;95.00
21169;DHT22;10742;51.816;8.662;2024-03-22T03:29:45;14.40;95.00
21169;DHT22;10742;51.816;8.662;2024-03-22T03:33:05;14.40;95.00
21169;DHT22;10742;51.816;8.662;2024-03-22T03:36:26;14.40;95.40
21169;DHT22;10742;51.816;8.662;2024-03-22T03:39:46;14.40;95.10
21169;DHT22;10742;51.816;8.662;2024-03-22T03:43:07;14.40;95.10
21169;DHT22;10742;51.816;8.662;2024-03-22T03:46:27;14.40;95.10
21169;DHT22;10742;51.816;8.662;2024-03-22T03:49:48;14.40;95.10
21169;DHT22;10742;51.816;8.662;2024-03-22T03:53:08;14.40;95.10
21169;DHT22;10742;51.816;8.662;2024-03-22T03:56:28;14.40;95.10
21169;DHT22;10742;51.816;8.662;2024-03-22T03:59:49;14.40;95.10
21169;DHT22;10742;51.816;8.662;2024-03-22T04:03:10;14.40;95.00
21169;DHT22;10742;51.816;8.662;2024-03-22T04:06:31;14.40;95.10
21169;DHT22;10742;51.816;8.662;2024-03-22T04:09:51;14.40;95.00
21169;DHT22;10742;51.816;8.662;2024-03-22T04:13:12;14.40;95.00
21169;DHT22;10742;51.816;8.662;2024-03-22T04:16:32;14.30;95.00
21169;DHT22;10742;51.816;8.662;2024-03-22T04:19:53;14.30;95.10
21169;DHT22;10742;51.816;8.662;2024-03-22T04:23:13;14.30;95.10
21169;DHT22;10742;51.816;8.662;2024-03-22T04:26:33;14.30;95.50
21169;DHT22;10742;51.816;8.662;2024-03-22T04:29:54;14.30;95.20
21169;DHT22;10742;51.816;8.662;2024-03-22T04:33:14;14.30;95.30
21169;DHT22;10742;51.816;8.662;2024-03-22T04:36:35;14.20;95.30
21169;DHT22;10742;51.816;8.662;2024-03-22T04:39:55;14.30;95.40
21169;DHT22;10742;51.816;8.662;2024-03-22T04:43:16;14.20;95.40
21169;DHT22;10742;51.816;8.662;2024-03-22T04:46:36;14.20;95.40
21169;DHT22;10742;51.816;8.662;2024-03-22T04:49:57;14.20;95.50
21169;DHT22;10742;51.816;8.662;2024-03-22T04:53:18;14.20;95.50
21169;DHT22;10742;51.816;8.662;2024-03-22T04:56:39;14.20;95.50
21169;DHT22;10742;51.816;8.662;2024-03-22T05:00:00;14.20;95.60
21169;DHT22;10742;51.816;8.662;2024-03-22T05:03:20;14.20;95.50
21169;DHT22;10742;51.816;8.662;2024-03-22T05:06:41;14.20;95.50
21169;DHT22;10742;51.816;8.662;2024-03-22T05:10:01;14.20;95.50
21169;DHT22;10742;51.816;8.662;2024-03-22T05:13:22;14.20;95.60
21169;DHT22;10742;51.816;8.662;2024-03-22T05:16:42;14.20;95.60
21169;DHT22;10742;51.816;8.662;2024-03-22T05:20:04;14.10;95.60
21169;DHT22;10742;51.816;8.662;2024-03-22T05:23:25;14.10;95.70
21169;DHT22;10742;51.816;8.662;2024-03-22T05:26:45;14.10;95.70
21169;DHT22;10742;51.816;8.662;2024-03-22T05:30:06;14.10;95.70
21169;DHT22;10742;51.816;8.662;2024-03-22T05:33:30;14.10;95.70
21169;DHT22;10742;51.816;8.662;2024-03-22T05:36:50;14.10;95.80
21169;DHT22;10742;51.816;8.662;2024-03-22T05:40:12;14.10;95.80
21169;DHT22;10742;51.816;8.662;2024-03-22T05:43:32;14.10;95.90
21169;DHT22;10742;51.816;8.662;2024-03-22T05:46:53;14.10;95.80
21169;DHT22;10742;51.816;8.662;2024-03-22T05:50:13;14.10;95.90
21169;DHT22;10742;51.816;8.662;2024-03-22T05:53:34;14.10;96.00
21169;DHT22;10742;51.816;8.662;2024-03-22T05:56:55;14.10;96.00
21169;DHT22;10742;51.816;8.662;2024-03-22T06:00:16;14.20;96.10
21169;DHT22;10742;51.816;8.662;2024-03-22T06:03:36;14.20;96.10
21169;DHT22;10742;51.816;8.662;2024-03-22T06:06:57;14.20;96.30
21169;DHT22;10742;51.816;8.662;2024-03-22T06:10:19;14.20;96.30
21169;DHT22;10742;51.816;8.662;2024-03-22T06:13:40;14.30;96.30
21169;DHT22;10742;51.816;8.662;2024-03-22T06:17:00;14.30;96.40
21169;DHT22;10742;51.816;8.662;2024-03-22T06:20:21;14.40;96.50
21169;DHT22;10742;51.816;8.662;2024-03-22T06:23:41;14.40;96.50
21169;DHT22;10742;51.816;8.662;2024-03-22T06:27:01;14.50;96.60
21169;DHT22;10742;51.816;8.662;2024-03-22T06:30:22;14.60;96.60
21169;DHT22;10742;51.816;8.662;2024-03-22T06:33:43;14.60;96.60
21169;DHT22;10742;51.816;8.662;2024-03-22T06:37:04;14.70;96.70
21169;DHT22;10742;51.816;8.662;2024-03-22T06:40:27;14.80;96.70
21169;DHT22;10742;51.816;8.662;2024-03-22T06:43:48;14.90;96.70
21169;DHT22;10742;51.816;8.662;2024-03-22T06:47:08;14.90;96.80
21169;DHT22;10742;51.816;8.662;2024-03-22T06:50:28;15.00;96.80
21169;DHT22;10742;51.816;8.662;2024-03-22T06:53:49;15.10;96.80
21169;DHT22;10742;51.816;8.662;2024-03-22T06:57:09;15.20;96.80
21169;DHT22;10742;51.816;8.662;2024-03-22T07:00:30;15.30;96.80
21169;DHT22;10742;51.816;8.662;2024-03-22T07:03:50;15.30;96.70
21169;DHT22;10742;51.816;8.662;2024-03-22T07:07:12;15.40;96.70
21169;DHT22;10742;51.816;8.662;2024-03-22T07:10:32;15.40;96.70
21169;DHT22;10742;51.816;8.662;2024-03-22T07:13:53;15.50;96.60
21169;DHT22;10742;51.816;8.662;2024-03-22T07:17:14;15.50;96.60
21169;DHT22;10742;51.816;8.662;2024-03-22T07:20:35;15.60;96.60
21169;DHT22;10742;51.816;8.662;2024-03-22T07:23:55;15.70;96.50
21169;DHT22;10742;51.816;8.662;2024-03-22T07:27:16;15.70;96.50
21169;DHT22;10742;51.816;8.662;2024-03-22T07:30:37;15.80;96.40
21169;DHT22;10742;51.816;8.662;2024-03-22T07:33:57;15.80;96.40
21169;DHT22;10742;51.816;8.662;2024-03-22T07:37:17;15.90;96.40
21169;DHT22;10742;51.816;8.662;2024-03-22T07:40:38;16.00;96.40
21169;DHT22;10742;51.816;8.662;2024-03-22T07:43:59;16.10;96.40
21169;DHT22;10742;51.816;8.662;2024-03-22T07:47:20;16.20;96.30
21169;DHT22;10742;51.816;8.662;2024-03-22T07:50:40;16.20;96.20
21169;DHT22;10742;51.816;8.662;2024-03-22T07:54:01;16.30;96.20
21169;DHT22;10742;51.816;8.662;2024-03-22T07:57:22;16.30;96.10
21169;DHT22;10742;51.816;8.662;2024-03-22T08:00:44;16.40;96.00
21169;DHT22;10742;51.816;8.662;2024-03-22T08:04:07;16.40;95.90
21169;DHT22;10742;51.816;8.662;2024-03-22T08:07:28;16.50;95.90
21169;DHT22;10742;51.816;8.662;2024-03-22T08:10:49;16.60;95.80
21169;DHT22;10742;51.816;8.662;2024-03-22T08:14:09;16.60;95.70
21169;DHT22;10742;51.816;8.662;2024-03-22T08:17:30;16.60;95.60
21169;DHT22;10742;51.816;8.662;2024-03-22T08:20:50;16.70;95.60
21169;DHT22;10742;51.816;8.662;2024-03-22T08:24:11;16.70;95.50
21169;DHT22;10742;51.816;8.662;2024-03-22T08:27:33;16.70;95.40
21169;DHT22;10742;51.816;8.662;2024-03-22T08:30:54;16.80;95.50
21169;DHT22;10742;51.816;8.662;2024-03-22T08:34:15;16.80;95.30
21169;DHT22;10742;51.816;8.662;2024-03-22T08:37:35;16.90;95.20
21169;DHT22;10742;51.816;8.662;2024-03-22T08:40:56;16.90;95.20
21169;DHT22;10742;51.816;8.662;2024-03-22T08:44:16;17.00;95.10
21169;DHT22;10742;51.816;8.662;2024-03-22T08:47:37;17.00;95.00
21169;DHT22;10742;51.816;8.662;2024-03-22T08:50:57;17.10;95.00
21169;DHT22;10742;51.816;8.662;2024-03-22T08:54:18;17.10;94.90
21169;DHT22;10742;51.816;8.662;2024-03-22T08:57:38;17.20;94.90
21169;DHT22;10742;51.816;8.662;2024-03-22T09:00:59;17.20;94.80
21169;DHT22;10742;51.816;8.662;2024-03-22T09:04:19;17.30;94.80
21169;DHT22;10742;51.816;8.662;2024-03-22T09:07:40;17.30;94.70
21169;DHT22;10742;51.816;8.662;2024-03-22T09:11:00;17.40;94.70
21169;DHT22;10742;51.816;8.662;2024-03-22T09:14:21;17.40;94.70
21169;DHT22;10742;51.816;8.662;2024-03-22T09:17:42;17.40;94.50
21169;DHT22;10742;51.816;8.662;2024-03-22T09:21:02;17.50;94.40
21169;DHT22;10742;51.816;8.662;2024-03-22T09:24:23;17.50;94.30
21169;DHT22;10742;51.816;8.662;2024-03-22T09:27:43;17.60;94.20
21169;DHT22;10742;51.816;8.662;2024-03-22T09:31:05;17.60;94.20
21169;DHT22;10742;51.816;8.662;2024-03-22T09:34:26;17.70;94.20
21169;DHT22;10742;51.816;8.662;2024-03-22T09:37:46;17.80;94.20
21169;DHT22;10742;51.816;8.662;2024-03-22T09:41:07;17.90;94.20
21169;DHT22;10742;51.816;8.662;2024-03-22T09:44:27;17.90;94.20
21169;DHT22;10742;51.816;8.662;2024-03-22T09:47:50;18.10;94.10
21169;DHT22;10742;51.816;8.662;2024-03-22T09:51:11;18.20;93.90
21169;DHT22;10742;51.816;8.662;2024-03-22T09:54:33;18.30;93.90
21169;DHT22;10742;51.816;8.662;2024-03-22T09:57:53;18.30;93.50
21169;DHT22;10742;51.816;8.662;2024-03-22T10:01:15;18.40;93.20
21169;DHT22;10742;51.816;8.662;2024-03-22T10:04:36;18.50;93.40
21169;DHT22;10742;51.816;8.662;2024-03-22T10:07:56;18.50;93.10
21169;DHT22;10742;51.816;8.662;2024-03-22T10:11:17;18.60;92.80
21169;DHT22;10742;51.816;8.662;2024-03-22T10:14:38;18.60;92.60
21169;DHT22;10742;51.816;8.662;2024-03-22T10:18:00;18.70;92.50
21169;DHT22;10742;51.816;8.662;2024-03-22T10:21:20;18.70;92.40
21169;DHT22;10742;51.816;8.662;2024-03-22T10:24:41;18.70;91.70
21169;DHT22;10742;51.816;8.662;2024-03-22T10:28:01;18.70;91.40
21169;DHT22;10742;51.816;8.662;2024-03-22T10:31:22;18.80;91.20
21169;DHT22;10742;51.816;8.662;2024-03-22T10:34:42;18.80;91.00
21169;DHT22;10742;51.816;8.662;2024-03-22T10:38:07;18.80;90.80
21169;DHT22;10742;51.816;8.662;2024-03-22T10:41:27;18.90;90.70
21169;DHT22;10742;51.816;8.662;2024-03-22T10:44:48;18.90;90.90
21169;DHT22;10742;51.816;8.662;2024-03-22T10:48:09;19.00;90.80
21169;DHT22;10742;51.816;8.662;2024-03-22T10:51:30;19.00;90.60
21169;DHT22;10742;51.816;8.662;2024-03-22T10:54:53;19.10;90.50
21169;DHT22;10742;51.816;8.662;2024-03-22T10:58:18;19.10;90.40
21169;DHT22;10742;51.816;8.662;2024-03-22T11:01:45;19.10;90.00
21169;DHT22;10742;51.816;8.662;2024-03-22T11:05:06;19.20;89.50
21169;DHT22;10742;51.816;8.662;2024-03-22T11:08:29;19.20;90.20
21169;DHT22;10742;51.816;8.662;2024-03-22T11:11:52;19.20;90.10
21169;DHT22;10742;51.816;8.662;2024-03-22T11:15:12;19.30;90.10
21169;DHT22;10742;51.816;8.662;2024-03-22T11:18:33;19.30;90.10
21169;DHT22;10742;51.816;8.662;2024-03-22T11:22:00;19.40;90.00
21169;DHT22;10742;51.816;8.662;2024-03-22T11:25:20;19.40;89.90
21169;DHT22;10742;51.816;8.662;2024-03-22T11:28:42;19.50;89.90
21169;DHT22;10742;51.816;8.662;2024-03-22T11:32:04;19.50;89.70
21169;DHT22;10742;51.816;8.662;2024-03-22T11:35:24;19.50;89.80
21169;DHT22;10742;51.816;8.662;2024-03-22T11:38:45;19.60;89.80
21169;DHT22;10742;51.816;8.662;2024-03-22T11:42:06;19.60;89.60
21169;DHT22;10742;51.816;8.662;2024-03-22T11:45:28;19.60;89.20
21169;DHT22;10742;51.816;8.662;2024-03-22T11:48:55;19.70;89.20
21169;DHT22;10742;51.816;8.662;2024-03-22T11:52:15;19.70;88.50
21169;DHT22;10742;51.816;8.662;2024-03-22T11:55:36;19.70;88.90
21169;DHT22;10742;51.816;8.662;2024-03-22T11:59:00;19.70;88.40
21169;DHT22;10742;51.816;8.662;2024-03-22T12:02:21;19.70;87.80
21169;DHT22;10742;51.816;8.662;2024-03-22T12:05:41;19.70;88.30
21169;DHT22;10742;51.816;8.662;2024-03-22T12:09:02;19.70;88.40
21169;DHT22;10742;51.816;8.662;2024-03-22T12:12:23;19.70;88.20
21169;DHT22;10742;51.816;8.662;2024-03-22T12:15:44;19.70;87.90
21169;DHT22;10742;51.816;8.662;2024-03-22T12:19:06;19.70;87.80
21169;DHT22;10742;51.816;8.662;2024-03-22T12:22:27;19.70;87.70
21169;DHT22;10742;51.816;8.662;2024-03-22T12:25:49;19.70;87.60
21169;DHT22;10742;51.816;8.662;2024-03-22T12:29:12;19.70;87.10
21169;DHT22;10742;51.816;8.662;2024-03-22T12:32:33;19.70;87.00
21169;DHT22;10742;51.816;8.662;2024-03-22T12:35:53;19.60;87.10
21169;DHT22;10742;51.816;8.662;2024-03-22T12:39:14;19.60;87.10
21169;DHT22;10742;51.816;8.662;2024-03-22T12:42:34;19.60;87.40
21169;DHT22;10742;51.816;8.662;2024-03-22T12:45:55;19.60;87.20
21169;DHT22;10742;51.816;8.662;2024-03-22T12:49:15;19.60;87.40
21169;DHT22;10742;51.816;8.662;2024-03-22T12:52:36;19.60;87.40
21169;DHT22;10742;51.816;8.662;2024-03-22T12:55:56;19.60;87.70
21169;DHT22;10742;51.816;8.662;2024-03-22T12:59:17;19.60;88.00
21169;DHT22;10742;51.816;8.662;2024-03-22T13:02:38;19.50;87.90
21169;DHT22;10742;51.816;8.662;2024-03-22T13:05:59;19.50;88.20
21169;DHT22;10742;51.816;8.662;2024-03-22T13:09:19;19.40;88.40
21169;DHT22;10742;51.816;8.662;2024-03-22T13:12:41;19.30;88.70
21169;DHT22;10742;51.816;8.662;2024-03-22T13:16:03;19.10;89.00
21169;DHT22;10742;51.816;8.662;2024-03-22T13:19:23;19.00;89.30
21169;DHT22;10742;51.816;8.662;2024-03-22T13:22:44;18.90;89.80
21169;DHT22;10742;51.816;8.662;2024-03-22T13:26:08;18.80;90.00
21169;DHT22;10742;51.816;8.662;2024-03-22T13:29:29;18.70;90.50
21169;DHT22;10742;51.816;8.662;2024-03-22T13:32:49;18.60;90.30
21169;DHT22;10742;51.816;8.662;2024-03-22T13:36:09;18.60;90.40
21169;DHT22;10742;51.816;8.662;2024-03-22T13:39:29;18.50;90.50
21169;DHT22;10742;51.816;8.662;2024-03-22T13:42:53;18.40;90.60
21169;DHT22;10742;51.816;8.662;2024-03-22T13:46:14;18.30;90.80
21169;DHT22;10742;51.816;8.662;2024-03-22T13:49:37;18.30;90.80
21169;DHT22;10742;51.816;8.662;2024-03-22T13:53:01;18.20;91.10
21169;DHT22;10742;51.816;8.662;2024-03-22T13:56:22;18.20;91.20
21169;DHT22;10742;51.816;8.662;2024-03-22T13:59:43;18.20;91.40
21169;DHT22;10742;51.816;8.662;2024-03-22T14:03:04;18.10;91.50
21169;DHT22;10742;51.816;8.662;2024-03-22T14:06:26;18.00;91.70
21169;DHT22;10742;51.816;8.662;2024-03-22T14:09:46;18.00;91.70
21169;DHT22;10742;51.816;8.662;2024-03-22T14:13:06;18.00;91.80
21169;DHT22;10742;51.816;8.662;2024-03-22T14:16:28;18.00;91.80
21169;DHT22;10742;51.816;8.662;2024-03-22T14:19:48;17.90;91.70
21169;DHT22;10742;51.816;8.662;2024-03-22T14:23:09;17.90;91.80
21169;DHT22;10742;51.816;8.662;2024-03-22T14:26:29;17.90;92.00
21169;DHT22;10742;51.816;8.662;2024-03-22T14:29:50;17.80;92.00
21169;DHT22;10742;51.816;8.662;2024-03-22T14:33:12;17.80;92.00
21169;DHT22;10742;51.816;8.662;2024-03-22T14:36:32;17.80;91.90
21169;DHT22;10742;51.816;8.662;2024-03-22T14:39:53;17.80;92.00
21169;DHT22;10742;51.816;8.662;2024-03-22T14:43:13;17.70;92.00
21169;DHT22;10742;51.816;8.662;2024-03-22T14:46:34;17.60;92.00
21169;DHT22;10742;51.816;8.662;2024-03-22T14:49:54;17.50;92.50
21169;DHT22;10742;51.816;8.662;2024-03-22T14:53:15;17.40;92.30
21169;DHT22;10742;51.816;8.662;2024-03-22T14:56:39;17.40;92.40
21169;DHT22;10742;51.816;8.662;2024-03-22T15:00:00;17.30;92.60
21169;DHT22;10742;51.816;8.662;2024-03-22T15:03:21;17.20;92.70
21169;DHT22;10742;51.816;8.662;2024-03-22T15:06:42;17.10;93.10
21169;DHT22;10742;51.816;8.662;2024-03-22T15:10:05;17.00;93.00
21169;DHT22;10742;51.816;8.662;2024-03-22T15:13:25;17.00;93.40
21169;DHT22;10742;51.816;8.662;2024-03-22T15:16:46;16.90;93.50
21169;DHT22;10742;51.816;8.662;2024-03-22T15:20:07;16.90;93.90
21169;DHT22;10742;51.816;8.662;2024-03-22T15:23:29;16.80;94.00
21169;DHT22;10742;51.816;8.662;2024-03-22T15:26:49;16.70;94.20
21169;DHT22;10742;51.816;8.662;2024-03-22T15:30:10;16.60;94.20
21169;DHT22;10742;51.816;8.662;2024-03-22T15:33:31;16.60;94.30
21169;DHT22;10742;51.816;8.662;2024-03-22T15:36:52;16.50;94.60
21169;DHT22;10742;51.816;8.662;2024-03-22T15:40:13;16.40;94.60
21169;DHT22;10742;51.816;8.662;2024-03-22T15:43:34;16.30;94.70
21169;DHT22;10742;51.816;8.662;2024-03-22T15:46:54;16.30;94.90
21169;DHT22;10742;51.816;8.662;2024-03-22T15:50:19;16.20;95.00
21169;DHT22;10742;51.816;8.662;2024-03-22T15:53:40;16.20;95.20
21169;DHT22;10742;51.816;8.662;2024-03-22T15:57:00;16.10;95.20
21169;DHT22;10742;51.816;8.662;2024-03-22T16:00:22;16.10;95.30
21169;DHT22;10742;51.816;8.662;2024-03-22T16:03:42;16.10;95.40
21169;DHT22;10742;51.816;8.662;2024-03-22T16:07:03;16.10;95.40
21169;DHT22;10742;51.816;8.662;2024-03-22T16:10:23;16.10;95.60
21169;DHT22;10742;51.816;8.662;2024-03-22T16:13:43;16.10;95.70
21169;DHT22;10742;51.816;8.662;2024-03-22T16:17:04;16.00;95.80
21169;DHT22;10742;51.816;8.662;2024-03-22T16:20:27;16.00;95.80
21169;DHT22;10742;51.816;8.662;2024-03-22T16:23:48;16.00;95.80
21169;DHT22;10742;51.816;8.662;2024-03-22T16:27:09;16.00;95.90
21169;DHT22;10742;51.816;8.662;2024-03-22T16:30:31;16.00;96.10
21169;DHT22;10742;51.816;8.662;2024-03-22T16:33:52;16.00;96.10
21169;DHT22;10742;51.816;8.662;2024-03-22T16:37:12;16.00;96.10
21169;DHT22;10742;51.816;8.662;2024-03-22T16:40:32;15.90;96.20
21169;DHT22;10742;51.816;8.662;2024-03-22T16:43:53;15.90;96.20
21169;DHT22;10742;51.816;8.662;2024-03-22T16:47:14;15.90;96.30
21169;DHT22;10742;51.816;8.662;2024-03-22T16:50:34;16.00;96.40
21169;DHT22;10742;51.816;8.662;2024-03-22T16:53:55;16.00;96.40
21169;DHT22;10742;51.816;8.662;2024-03-22T16:57:15;16.00;96.40
21169;DHT22;10742;51.816;8.662;2024-03-22T17:00:39;16.00;96.40
21169;DHT22;10742;51.816;8.662;2024-03-22T17:04:00;16.00;96.60
21169;DHT22;10742;51.816;8.662;2024-03-22T17:07:20;16.00;96.50
21169;DHT22;10742;51.816;8.662;2024-03-22T17:10:41;15.90;96.50
21169;DHT22;10742;51.816;8.662;2024-03-22T17:14:02;16.00;96.60
21169;DHT22;10742;51.816;8.662;2024-03-22T17:17:22;16.00;96.60
21169;DHT22;10742;51.816;8.662;2024-03-22T17:20:43;16.00;96.70
21169;DHT22;10742;51.816;8.662;2024-03-22T17:24:03;16.00;96.60
21169;DHT22;10742;51.816;8.662;2024-03-22T17:27:24;16.00;96.70
21169;DHT22;10742;51.816;8.662;2024-03-22T17:30:45;16.00;96.70
21169;DHT22;10742;51.816;8.662;2024-03-22T17:34:06;16.00;96.80
21169;DHT22;10742;51.816;8.662;2024-03-22T17:37:27;16.00;96.80
21169;DHT22;10742;51.816;8.662;2024-03-22T17:40:47;16.00;96.80
21169;DHT22;10742;51.816;8.662;2024-03-22T17:44:07;15.90;96.80
21169;DHT22;10742;51.816;8.662;2024-03-22T17:47:28;15.90;96.80
21169;DHT22;10742;51.816;8.662;2024-03-22T17:50:49;15.90;96.80
21169;DHT22;10742;51.816;8.662;2024-03-22T17:54:09;15.90;96.90
21169;DHT22;10742;51.816;8.662;2024-03-22T17:57:30;15.90;96.90
21169;DHT22;10742;51.816;8.662;2024-03-22T18:00:51;15.90;96.90
21169;DHT22;10742;51.816;8.662;2024-03-22T18:04:11;15.80;97.00
21169;DHT22;10742;51.816;8.662;2024-03-22T18:07:32;15.80;97.00
21169;DHT22;10742;51.816;8.662;2024-03-22T18:10:53;15.80;97.00
21169;DHT22;10742;51.816;8.662;2024-03-22T18:14:13;15.80;97.10
21169;DHT22;10742;51.816;8.662;2024-03-22T18:17:34;15.80;97.10
21169;DHT22;10742;51.816;8.662;2024-03-22T18:20:54;15.80;97.20
21169;DHT22;10742;51.816;8.662;2024-03-22T18:24:16;15.70;97.10
21169;DHT22;10742;51.816;8.662;2024-03-22T18:27:38;15.70;97.20
21169;DHT22;10742;51.816;8.662;2024-03-22T18:30:59;15.70;97.20
21169;DHT22;10742;51.816;8.662;2024-03-22T18:34:19;15.70;97.30
21169;DHT22;10742;51.816;8.662;2024-03-22T18:37:40;15.60;97.30
21169;DHT22;10742;51.816;8.662;2024-03-22T18:41:00;15.60;97.40
21169;DHT22;10742;51.816;8.662;2024-03-22T18:44:23;15.60;97.50
21169;DHT22;10742;51.816;8.662;2024-03-22T18:47:44;15.60;97.50
21169;DHT22;10742;51.816;8.662;2024-03-22T18:51:05;15.60;97.50
21169;DHT22;10742;51.816;8.662;2024-03-22T18:54:32;15.50;97.60
21169;DHT22;10742;51.816;8.662;2024-03-22T18:57:52;15.50;97.90
21169;DHT22;10742;51.816;8.662;2024-03-22T19:01:13;15.50;97.70
21169;DHT22;10742;51.816;8.662;2024-03-22T19:04:33;15.50;97.70
21169;DHT22;10742;51.816;8.662;2024-03-22T19:07:54;15.50;97.70
21169;DHT22;10742;51.816;8.662;2024-03-22T19:11:14;15.50;97.80
21169;DHT22;10742;51.816;8.662;2024-03-22T19:14:35;15.50;97.80
21169;DHT22;10742;51.816;8.662;2024-03-22T19:17:56;15.50;98.10
21169;DHT22;10742;51.816;8.662;2024-03-22T19:21:16;15.50;97.80
21169;DHT22;10742;51.816;8.662;2024-03-22T19:24:37;15.50;97.90
21169;DHT22;10742;51.816;8.662;2024-03-22T19:27:57;15.50;97.90
21169;DHT22;10742;51.816;8.662;2024-03-22T19:31:18;15.50;97.70
21169;DHT22;10742;51.816;8.662;2024-03-22T19:34:38;15.40;97.30
21169;DHT22;10742;51.816;8.662;2024-03-22T19:38:00;15.30;97.10
21169;DHT22;10742;51.816;8.662;2024-03-22T19:41:20;15.20;97.00
21169;DHT22;10742;51.816;8.662;2024-03-22T19:44:41;14.70;97.70
21169;DHT22;10742;51.816;8.662;2024-03-22T19:48:01;14.70;97.60
21169;DHT22;10742;51.816;8.662;2024-03-22T19:51:23;14.70;97.40
21169;DHT22;10742;51.816;8.662;2024-03-22T19:54:44;14.60;97.30
21169;DHT22;10742;51.816;8.662;2024-03-22T19:58:04;14.50;97.20
21169;DHT22;10742;51.816;8.662;2024-03-22T20:01:28;14.50;97.00
21169;DHT22;10742;51.816;8.662;2024-03-22T20:04:48;14.40;96.90
21169;DHT22;10742;51.816;8.662;2024-03-22T20:08:09;14.30;96.80
21169;DHT22;10742;51.816;8.662;2024-03-22T20:11:29;14.30;96.70
21169;DHT22;10742;51.816;8.662;2024-03-22T20:14:50;14.20;96.80
21169;DHT22;10742;51.816;8.662;2024-03-22T20:18:10;14.10;96.80
21169;DHT22;10742;51.816;8.662;2024-03-22T20:21:31;14.10;96.90
21169;DHT22;10742;51.816;8.662;2024-03-22T20:24:51;14.00;97.00
21169;DHT22;10742;51.816;8.662;2024-03-22T20:28:12;13.90;97.00
21169;DHT22;10742;51.816;8.662;2024-03-22T20:31:32;13.90;97.00
21169;DHT22;10742;51.816;8.662;2024-03-22T20:34:59;13.80;97.10
